createdAt,value
2023-03-14T00:01:16.770Z,96.90
2023-03-14T00:03:44.310Z,96.90
2023-03-14T00:06:12.293Z,97.00
2023-03-14T00:08:39.727Z,97.10
2023-03-14T00:11:11.599Z,97.10
2023-03-14T00:13:38.939Z,97.30
2023-03-14T00:16:11.576Z,97.20
2023-03-14T00:18:39.147Z,97.30
2023-03-14T00:21:07.346Z,97.20
2023-03-14T00:23:36.259Z,97.10
2023-03-14T00:26:18.064Z,97.10
2023-03-14T00:28:45.329Z,97.00
2023-03-14T00:31:15.549Z,97.10
2023-03-14T00:33:43.630Z,97.10
2023-03-14T00:36:13.840Z,96.90
2023-03-14T00:38:42.177Z,97.00
2023-03-14T00:41:14.831Z,96.90
2023-03-14T00:43:42.452Z,96.90
2023-03-14T00:46:09.901Z,96.80
2023-03-14T00:48:37.405Z,96.60
2023-03-14T00:51:05.883Z,96.40
2023-03-14T00:53:35.704Z,96.30
2023-03-14T00:56:08.087Z,96.30
2023-03-14T00:58:35.070Z,96.20
2023-03-14T01:01:10.861Z,96.20
2023-03-14T01:03:37.917Z,96.30
2023-03-14T01:06:16.648Z,96.10
2023-03-14T01:08:43.865Z,96.10
2023-03-14T01:11:16.625Z,96.00
2023-03-14T01:13:43.887Z,96.10
2023-03-14T01:16:12.635Z,96.00
2023-03-14T01:18:40.711Z,96.10
2023-03-14T01:21:13.938Z,96.00
2023-03-14T01:23:41.087Z,96.10
2023-03-14T01:26:13.422Z,96.10
2023-03-14T01:28:40.822Z,95.90
2023-03-14T01:31:10.927Z,96.00
2023-03-14T01:33:38.230Z,95.80
2023-03-14T01:36:05.697Z,95.80
2023-03-14T01:38:34.502Z,95.60
2023-03-14T01:41:02.335Z,95.60
2023-03-14T01:43:31.236Z,95.60
2023-03-14T01:46:07.493Z,95.60
2023-03-14T01:49:09.789Z,95.60
2023-03-14T01:51:43.789Z,95.60
2023-03-14T01:54:23.122Z,95.60
2023-03-14T01:56:57.626Z,95.50
2023-03-14T01:59:25.944Z,95.50
2023-03-14T02:01:56.233Z,95.60
2023-03-14T02:04:24.208Z,95.60
2023-03-14T02:06:57.396Z,95.60
2023-03-14T02:09:31.963Z,95.70
2023-03-14T02:11:59.959Z,95.70
2023-03-14T02:14:43.342Z,95.70
2023-03-14T02:17:26.807Z,95.60
2023-03-14T02:20:32.317Z,95.70
2023-03-14T02:23:00.498Z,95.70
2023-03-14T02:25:35.224Z,95.70
2023-03-14T02:28:02.787Z,95.60
2023-03-14T02:30:31.827Z,95.90
2023-03-14T02:33:07.574Z,95.60
2023-03-14T02:35:54.255Z,95.50
2023-03-14T02:38:36.000Z,95.60
2023-03-14T02:41:05.224Z,95.70
2023-03-14T02:43:36.528Z,95.70
2023-03-14T02:46:12.752Z,95.80
2023-03-14T02:48:49.182Z,95.80
2023-03-14T02:51:17.474Z,95.80
2023-03-14T02:53:47.128Z,96.00
2023-03-14T02:56:15.013Z,95.90
2023-03-14T02:58:41.790Z,96.00
2023-03-14T03:01:27.577Z,96.10
2023-03-14T03:03:54.625Z,96.20
2023-03-14T03:06:21.715Z,96.20
2023-03-14T03:08:48.593Z,96.30
2023-03-14T03:11:15.371Z,96.30
2023-03-14T03:13:42.376Z,96.30
2023-03-14T03:16:10.103Z,96.40
2023-03-14T03:18:37.009Z,96.50
2023-03-14T03:21:05.177Z,96.60
2023-03-14T03:23:32.432Z,96.60
2023-03-14T03:25:59.227Z,96.70
2023-03-14T03:28:26.368Z,96.80
2023-03-14T03:30:54.151Z,96.90
2023-03-14T03:33:22.366Z,96.90
2023-03-14T03:35:51.430Z,97.00
2023-03-14T03:38:24.528Z,96.90
2023-03-14T03:40:53.681Z,97.90
2023-03-14T03:43:24.002Z,97.90
2023-03-14T03:45:51.513Z,97.80
2023-03-14T03:48:19.674Z,97.70
2023-03-14T03:50:47.741Z,97.60
2023-03-14T03:53:32.439Z,97.60
2023-03-14T03:56:02.631Z,97.90
2023-03-14T03:58:30.003Z,97.80
2023-03-14T04:00:56.931Z,97.70
2023-03-14T04:03:24.269Z,97.60
2023-03-14T04:06:12.527Z,97.60
2023-03-14T04:08:44.463Z,97.40
2023-03-14T04:11:21.149Z,97.30
2023-03-14T04:14:17.777Z,97.00
2023-03-14T04:16:44.866Z,97.00
2023-03-14T04:19:15.371Z,97.00
2023-03-14T04:21:45.758Z,96.90
2023-03-14T04:24:13.361Z,97.00
2023-03-14T04:26:41.805Z,97.10
2023-03-14T04:29:13.243Z,96.90
2023-03-14T04:31:41.076Z,96.90
2023-03-14T04:34:08.256Z,96.90
2023-03-14T04:36:40.502Z,97.00
2023-03-14T04:39:13.228Z,96.90
2023-03-14T04:41:46.816Z,96.80
2023-03-14T04:44:14.202Z,96.50
2023-03-14T04:46:41.123Z,96.10
2023-03-14T04:49:08.196Z,95.80
2023-03-14T04:51:35.657Z,95.50
2023-03-14T04:54:02.513Z,95.20
2023-03-14T04:56:29.810Z,95.00
2023-03-14T04:58:56.918Z,94.90
2023-03-14T05:01:24.419Z,94.80
2023-03-14T05:04:10.614Z,94.70
2023-03-14T05:06:57.750Z,94.50
2023-03-14T05:09:44.912Z,94.10
2023-03-14T05:12:21.747Z,94.30
2023-03-14T05:14:55.934Z,93.50
2023-03-14T05:17:39.569Z,93.30
2023-03-14T05:20:25.009Z,93.30
2023-03-14T05:23:17.816Z,93.30
2023-03-14T05:25:56.287Z,93.20
2023-03-14T05:29:01.528Z,93.20
2023-03-14T05:31:38.944Z,92.80
2023-03-14T05:34:17.390Z,92.80
2023-03-14T05:37:08.013Z,92.60
2023-03-14T05:39:48.408Z,92.60
2023-03-14T05:42:38.382Z,92.70
2023-03-14T05:45:20.115Z,92.50
2023-03-14T05:48:17.719Z,92.50
2023-03-14T05:51:04.778Z,92.40
2023-03-14T05:53:57.689Z,92.10
2023-03-14T05:56:47.253Z,92.20
2023-03-14T05:59:40.372Z,92.00
2023-03-14T06:02:27.369Z,91.90
2023-03-14T06:05:04.346Z,91.80
2023-03-14T06:07:31.234Z,91.80
2023-03-14T06:09:59.397Z,91.80
2023-03-14T06:12:26.462Z,91.60
2023-03-14T06:14:53.245Z,91.30
2023-03-14T06:17:20.349Z,91.10
2023-03-14T06:19:56.581Z,91.30
2023-03-14T06:22:23.913Z,91.20
2023-03-14T06:24:50.690Z,91.20
2023-03-14T06:27:18.569Z,91.30
2023-03-14T06:29:45.575Z,91.20
2023-03-14T06:32:12.537Z,91.20
2023-03-14T06:34:39.724Z,91.20
2023-03-14T06:37:06.995Z,91.30
2023-03-14T06:39:34.341Z,91.30
2023-03-14T06:42:07.923Z,91.30
2023-03-14T06:44:35.907Z,91.10
2023-03-14T06:47:02.967Z,91.10
2023-03-14T06:49:29.907Z,91.10
2023-03-14T06:51:58.902Z,91.30
2023-03-14T06:54:25.690Z,91.30
2023-03-14T06:56:52.651Z,91.60
2023-03-14T06:59:19.472Z,92.00
2023-03-14T07:01:49.340Z,92.50
2023-03-14T07:04:16.316Z,92.90
2023-03-14T07:06:47.777Z,93.40
2023-03-14T07:09:15.869Z,93.70
2023-03-14T07:11:48.963Z,93.80
2023-03-14T07:14:17.583Z,93.90
2023-03-14T07:16:44.635Z,94.00
2023-03-14T07:19:11.894Z,94.10
2023-03-14T07:21:39.349Z,94.70
2023-03-14T07:24:10.082Z,94.10
2023-03-14T07:26:37.940Z,94.00
2023-03-14T07:29:05.692Z,93.80
2023-03-14T07:31:32.895Z,93.70
2023-03-14T07:34:00.779Z,93.50
2023-03-14T07:36:31.863Z,93.30
2023-03-14T07:38:59.609Z,93.30
2023-03-14T07:41:34.582Z,93.40
2023-03-14T07:44:19.634Z,93.40
2023-03-14T07:46:46.584Z,93.30
2023-03-14T07:49:13.366Z,93.30
2023-03-14T07:51:40.186Z,93.30
2023-03-14T07:54:07.055Z,93.30
2023-03-14T07:56:33.821Z,93.50
2023-03-14T07:59:00.602Z,93.50
2023-03-14T08:01:27.432Z,93.50
2023-03-14T08:03:54.597Z,93.70
2023-03-14T08:06:21.475Z,93.90
2023-03-14T08:08:48.305Z,93.80
2023-03-14T08:11:15.510Z,93.80
2023-03-14T08:13:42.306Z,93.90
2023-03-14T08:16:09.725Z,93.90
2023-03-14T08:18:36.583Z,94.20
2023-03-14T08:21:03.628Z,94.30
2023-03-14T08:23:30.471Z,94.60
2023-03-14T08:25:57.262Z,94.80
2023-03-14T08:28:24.154Z,95.40
2023-03-14T08:30:51.121Z,96.00
2023-03-14T08:33:18.058Z,96.30
2023-03-14T08:35:44.888Z,96.60
2023-03-14T08:38:11.728Z,96.60
2023-03-14T08:40:38.602Z,96.60
2023-03-14T08:43:05.531Z,96.10
2023-03-14T08:45:32.473Z,96.10
2023-03-14T08:47:59.825Z,96.20
2023-03-14T08:50:26.714Z,96.40
2023-03-14T08:52:53.582Z,95.70
2023-03-14T08:55:20.462Z,95.50
2023-03-14T08:57:47.349Z,94.90
2023-03-14T09:00:16.152Z,95.00
2023-03-14T09:02:44.302Z,94.80
2023-03-14T09:05:11.454Z,94.70
2023-03-14T09:07:38.993Z,94.70
2023-03-14T09:10:07.210Z,94.90
2023-03-14T09:12:34.093Z,94.80
2023-03-14T09:15:01.018Z,94.60
2023-03-14T09:17:28.180Z,94.20
2023-03-14T09:19:55.111Z,94.30
2023-03-14T09:22:22.373Z,94.40
2023-03-14T09:24:49.199Z,94.50
2023-03-14T09:27:15.962Z,94.40
2023-03-14T09:29:42.898Z,94.30
2023-03-14T09:32:09.705Z,94.30
2023-03-14T09:34:37.053Z,94.30
2023-03-14T09:37:03.935Z,94.40
2023-03-14T09:39:30.828Z,94.80
2023-03-14T09:41:59.628Z,94.00
2023-03-14T09:44:36.506Z,93.90
2023-03-14T09:47:07.819Z,93.80
2023-03-14T09:49:38.398Z,93.50
2023-03-14T09:52:31.952Z,93.90
2023-03-14T09:55:03.787Z,93.90
2023-03-14T09:57:33.112Z,93.50
2023-03-14T10:00:14.860Z,93.50
2023-03-14T10:02:46.934Z,93.60
2023-03-14T10:05:19.378Z,94.00
2023-03-14T10:07:46.363Z,93.90
2023-03-14T10:10:25.971Z,93.40
2023-03-14T10:13:00.803Z,93.40
2023-03-14T10:15:32.689Z,93.80
2023-03-14T10:18:04.215Z,93.80
2023-03-14T10:20:35.989Z,93.60
2023-03-14T10:23:11.925Z,93.60
2023-03-14T10:25:41.914Z,93.60
2023-03-14T10:28:30.056Z,93.50
2023-03-14T10:30:58.460Z,93.80
2023-03-14T10:33:28.089Z,93.50
2023-03-14T10:35:58.047Z,93.70
2023-03-14T10:38:31.548Z,93.80
2023-03-14T10:41:00.245Z,94.00
2023-03-14T10:43:36.165Z,93.50
2023-03-14T10:46:10.873Z,93.90
2023-03-14T10:48:57.794Z,93.70
2023-03-14T10:51:30.768Z,93.80
2023-03-14T10:54:04.320Z,93.60
2023-03-14T10:56:38.329Z,94.50
2023-03-14T10:59:12.099Z,94.50
2023-03-14T11:02:02.880Z,94.40
2023-03-14T11:04:44.808Z,94.40
2023-03-14T11:07:17.220Z,94.50
2023-03-14T11:09:47.310Z,94.70
2023-03-14T11:12:39.143Z,94.50
2023-03-14T11:15:30.318Z,94.80
2023-03-14T11:18:07.749Z,94.40
2023-03-14T11:20:59.062Z,94.10
2023-03-14T11:23:38.652Z,93.80
2023-03-14T11:26:27.007Z,93.60
2023-03-14T11:28:59.759Z,93.30
2023-03-14T11:31:32.616Z,93.30
2023-03-14T11:34:03.045Z,93.80
2023-03-14T11:36:54.669Z,93.90
2023-03-14T11:39:22.287Z,93.40
2023-03-14T11:41:53.881Z,93.60
2023-03-14T11:44:26.270Z,94.40
2023-03-14T11:47:16.578Z,94.60
2023-03-14T11:49:48.341Z,94.10
2023-03-14T11:52:39.086Z,94.50
2023-03-14T11:55:05.885Z,95.20
2023-03-14T11:57:32.872Z,94.90
2023-03-14T12:00:15.134Z,94.90
2023-03-14T12:02:52.424Z,94.90
2023-03-14T12:05:58.792Z,94.90
2023-03-14T12:08:50.245Z,94.10
2023-03-14T12:11:20.667Z,94.30
2023-03-14T12:13:50.482Z,94.80
2023-03-14T12:16:40.762Z,94.50
2023-03-14T12:19:28.349Z,95.50
2023-03-14T12:22:06.612Z,95.60
2023-03-14T12:24:37.214Z,95.50
2023-03-14T12:27:06.441Z,95.70
2023-03-14T12:29:33.290Z,95.30
2023-03-14T12:32:21.302Z,95.70
2023-03-14T12:34:48.365Z,95.70
2023-03-14T12:37:38.003Z,96.00
2023-03-14T12:40:18.842Z,96.50
2023-03-14T12:42:59.138Z,98.60
2023-03-14T12:45:27.344Z,99.90
2023-03-14T12:47:58.493Z,99.90
2023-03-14T12:50:36.005Z,99.90
2023-03-14T12:53:19.274Z,99.90
2023-03-14T12:55:46.332Z,99.90
2023-03-14T12:58:34.883Z,99.90
2023-03-14T13:01:05.271Z,99.90
2023-03-14T13:03:54.573Z,99.90
2023-03-14T13:06:49.548Z,99.90
2023-03-14T13:09:33.412Z,99.90
2023-03-14T13:12:09.782Z,99.90
2023-03-14T13:14:37.936Z,99.90
2023-03-14T13:17:25.112Z,99.90
2023-03-14T13:19:57.897Z,99.90
2023-03-14T13:22:31.357Z,99.90
2023-03-14T13:25:10.943Z,99.90
2023-03-14T13:27:38.626Z,99.90
2023-03-14T13:30:30.598Z,99.90
2023-03-14T13:32:57.801Z,99.90
2023-03-14T13:35:30.121Z,99.90
2023-03-14T13:38:11.001Z,99.90
2023-03-14T13:40:38.469Z,99.90
2023-03-14T13:43:16.113Z,99.90
2023-03-14T13:46:05.464Z,99.90
2023-03-14T13:48:35.569Z,99.90
2023-03-14T13:51:08.032Z,99.90
2023-03-14T13:53:52.059Z,99.90
2023-03-14T13:56:20.975Z,99.90
2023-03-14T13:58:48.165Z,99.90
2023-03-14T14:01:20.257Z,99.90
2023-03-14T14:03:52.569Z,99.90
2023-03-14T14:06:45.634Z,99.90
2023-03-14T14:09:19.424Z,99.90
2023-03-14T14:12:14.907Z,99.90
2023-03-14T14:14:45.769Z,99.90
2023-03-14T14:17:16.280Z,99.90
2023-03-14T14:19:44.881Z,99.90
2023-03-14T14:22:12.133Z,99.90
2023-03-14T14:24:40.024Z,99.90
2023-03-14T14:27:27.607Z,99.90
2023-03-14T14:30:05.799Z,99.90
2023-03-14T14:32:40.665Z,99.90
2023-03-14T14:35:11.122Z,99.90
2023-03-14T14:37:45.197Z,99.90
2023-03-14T14:40:23.710Z,99.90
2023-03-14T14:42:51.262Z,99.90
2023-03-14T14:45:24.631Z,99.90
2023-03-14T14:47:52.682Z,99.90
2023-03-14T14:50:48.794Z,99.90
2023-03-14T14:53:31.879Z,99.90
2023-03-14T14:56:09.077Z,99.90
2023-03-14T14:58:42.188Z,99.90
2023-03-14T15:01:15.462Z,99.90
2023-03-14T15:03:48.091Z,99.90
2023-03-14T15:06:17.175Z,99.90
2023-03-14T15:08:45.334Z,99.90
2023-03-14T15:11:17.628Z,99.90
2023-03-14T15:13:44.572Z,99.90
2023-03-14T15:16:17.781Z,99.90
2023-03-14T15:18:45.493Z,99.90
2023-03-14T15:21:12.585Z,99.90
2023-03-14T15:23:39.455Z,99.90
2023-03-14T15:26:18.988Z,99.90
2023-03-14T15:28:47.216Z,99.90
2023-03-14T15:31:15.847Z,99.90
2023-03-14T15:33:43.435Z,99.90
2023-03-14T15:36:24.822Z,99.90
2023-03-14T15:38:53.428Z,99.90
2023-03-14T15:41:21.087Z,99.90
2023-03-14T15:43:48.427Z,99.90
2023-03-14T15:46:18.174Z,99.90
2023-03-14T15:48:46.477Z,99.90
2023-03-14T15:51:13.941Z,99.90
2023-03-14T15:53:41.430Z,99.90
2023-03-14T15:56:13.128Z,99.90
2023-03-14T15:58:41.409Z,99.90
2023-03-14T16:01:12.618Z,99.90
2023-03-14T16:03:39.615Z,99.90
2023-03-14T16:06:06.719Z,99.90
2023-03-14T16:08:33.785Z,99.90
2023-03-14T16:11:00.975Z,99.90
2023-03-14T16:13:28.586Z,99.90
2023-03-14T16:15:59.339Z,99.90
2023-03-14T16:18:29.383Z,99.90
2023-03-14T16:21:01.640Z,99.90
2023-03-14T16:23:29.676Z,99.90
2023-03-14T16:25:57.107Z,99.90
2023-03-14T16:28:25.111Z,99.90
2023-03-14T16:30:52.437Z,99.90
2023-03-14T16:33:19.677Z,99.90
2023-03-14T16:35:57.717Z,99.90
2023-03-14T16:38:24.941Z,99.90
2023-03-14T16:41:12.720Z,99.90
2023-03-14T16:43:40.008Z,99.90
2023-03-14T16:46:09.332Z,99.90
2023-03-14T16:48:36.348Z,99.90
2023-03-14T16:51:03.137Z,99.90
2023-03-14T16:53:30.345Z,99.90
2023-03-14T16:55:59.019Z,99.90
2023-03-14T16:58:26.467Z,99.90
2023-03-14T17:00:53.535Z,99.90
2023-03-14T17:03:21.230Z,99.90
2023-03-14T17:05:50.038Z,99.90
2023-03-14T17:08:18.568Z,99.90
2023-03-14T17:10:46.228Z,99.90
2023-03-14T17:13:13.542Z,99.90
2023-03-14T17:15:47.687Z,99.90
2023-03-14T17:18:14.633Z,99.90
2023-03-14T17:20:41.427Z,99.90
2023-03-14T17:23:08.998Z,99.90
2023-03-14T17:25:37.618Z,99.90
2023-03-14T17:28:06.150Z,99.90
2023-03-14T17:30:33.420Z,99.90
2023-03-14T17:33:00.354Z,99.90
2023-03-14T17:35:27.197Z,99.90
2023-03-14T17:37:54.016Z,99.90
2023-03-14T17:40:20.936Z,99.90
2023-03-14T17:42:47.773Z,99.90
2023-03-14T17:45:14.707Z,99.90
2023-03-14T17:47:41.624Z,99.90
2023-03-14T17:50:09.732Z,99.90
2023-03-14T17:52:36.872Z,99.90
2023-03-14T17:55:05.312Z,99.80
2023-03-14T17:57:32.671Z,99.10
2023-03-14T17:59:59.593Z,97.40
2023-03-14T18:02:26.600Z,96.70
2023-03-14T18:04:53.751Z,95.70
2023-03-14T18:07:20.805Z,95.30
2023-03-14T18:09:47.889Z,94.10
2023-03-14T18:12:15.042Z,93.20
2023-03-14T18:14:44.273Z,92.90
2023-03-14T18:17:15.564Z,93.00
2023-03-14T18:19:42.456Z,93.00
2023-03-14T18:22:09.356Z,92.10
2023-03-14T18:24:36.257Z,92.00
2023-03-14T18:27:03.135Z,91.90
2023-03-14T18:29:30.076Z,92.00
2023-03-14T18:31:58.249Z,91.40
2023-03-14T18:34:25.740Z,91.60
2023-03-14T18:36:53.239Z,91.90
2023-03-14T18:39:20.090Z,92.00
2023-03-14T18:41:46.861Z,92.00
2023-03-14T18:44:13.731Z,91.60
2023-03-14T18:46:40.702Z,90.60
2023-03-14T18:49:07.790Z,90.30
2023-03-14T18:51:34.654Z,90.50
2023-03-14T18:54:09.449Z,90.70
2023-03-14T18:56:38.682Z,89.90
2023-03-14T18:59:06.334Z,90.30
2023-03-14T19:01:34.078Z,90.50
2023-03-14T19:04:02.069Z,90.90
2023-03-14T19:06:31.869Z,91.00
2023-03-14T19:08:59.596Z,90.80
2023-03-14T19:11:26.881Z,90.50
2023-03-14T19:13:54.962Z,90.80
2023-03-14T19:16:24.957Z,91.00
2023-03-14T19:18:55.478Z,91.50
2023-03-14T19:21:34.672Z,91.60
2023-03-14T19:24:05.494Z,91.90
2023-03-14T19:26:34.342Z,91.50
2023-03-14T19:29:01.708Z,91.90
2023-03-14T19:31:28.533Z,91.50
2023-03-14T19:33:55.603Z,91.00
2023-03-14T19:36:31.247Z,90.70
2023-03-14T19:39:02.063Z,90.30
2023-03-14T19:41:29.774Z,90.30
2023-03-14T19:43:57.049Z,90.60
2023-03-14T19:46:24.070Z,90.60
2023-03-14T19:48:54.272Z,88.30
2023-03-14T19:51:24.810Z,87.60
2023-03-14T19:53:53.013Z,86.70
2023-03-14T19:56:21.833Z,84.70
2023-03-14T19:58:48.665Z,84.50
2023-03-14T20:01:15.680Z,84.90
2023-03-14T20:03:42.568Z,84.30
2023-03-14T20:06:11.773Z,84.80
2023-03-14T20:08:39.376Z,85.20
2023-03-14T20:11:08.799Z,85.70
2023-03-14T20:13:35.732Z,86.60
2023-03-14T20:16:10.442Z,84.80
2023-03-14T20:18:37.950Z,84.80
2023-03-14T20:21:15.069Z,84.10
2023-03-14T20:23:44.235Z,84.20
2023-03-14T20:26:11.183Z,84.30
2023-03-14T20:28:38.231Z,82.30
2023-03-14T20:31:07.644Z,80.40
2023-03-14T20:33:34.672Z,80.50
2023-03-14T20:36:01.733Z,79.90
2023-03-14T20:38:30.993Z,80.50
2023-03-14T20:40:59.254Z,79.70
2023-03-14T20:43:27.422Z,81.00
2023-03-14T20:45:59.193Z,80.70
2023-03-14T20:48:27.792Z,81.10
2023-03-14T20:50:55.060Z,81.50
2023-03-14T20:53:22.516Z,82.00
2023-03-14T20:55:50.186Z,81.60
2023-03-14T20:58:17.078Z,81.30
2023-03-14T21:00:49.101Z,81.50
2023-03-14T21:03:17.035Z,81.10
2023-03-14T21:05:46.478Z,82.20
2023-03-14T21:08:15.190Z,81.10
2023-03-14T21:10:42.190Z,81.50
2023-03-14T21:13:09.272Z,81.40
2023-03-14T21:15:37.588Z,81.70
2023-03-14T21:18:05.801Z,81.90
2023-03-14T21:20:33.924Z,82.40
2023-03-14T21:23:00.995Z,82.50
2023-03-14T21:25:28.397Z,82.90
2023-03-14T21:27:55.325Z,82.90
2023-03-14T21:30:22.425Z,83.40
2023-03-14T21:32:49.957Z,84.00
2023-03-14T21:35:17.492Z,84.70
2023-03-14T21:37:44.990Z,84.90
2023-03-14T21:40:12.649Z,85.10
2023-03-14T21:42:39.491Z,85.60
2023-03-14T21:45:07.019Z,85.90
2023-03-14T21:47:33.880Z,86.40
2023-03-14T21:50:01.729Z,86.20
2023-03-14T21:52:28.903Z,86.00
2023-03-14T21:54:55.724Z,86.20
2023-03-14T21:57:30.136Z,87.60
2023-03-14T21:59:57.291Z,86.90
2023-03-14T22:02:24.307Z,87.50
2023-03-14T22:04:51.308Z,87.80
2023-03-14T22:07:19.865Z,88.10
2023-03-14T22:09:48.059Z,88.20
2023-03-14T22:12:19.513Z,88.60
2023-03-14T22:14:47.491Z,88.50
2023-03-14T22:17:14.726Z,87.70
2023-03-14T22:19:41.608Z,87.40
2023-03-14T22:22:08.462Z,87.10
2023-03-14T22:24:35.294Z,86.30
2023-03-14T22:27:02.204Z,85.60
2023-03-14T22:29:29.016Z,85.40
2023-03-14T22:31:55.841Z,85.30
2023-03-14T22:34:22.972Z,85.30
2023-03-14T22:36:49.703Z,84.90
2023-03-14T22:39:17.346Z,84.40
2023-03-14T22:41:44.189Z,84.10
2023-03-14T22:44:14.785Z,83.70
2023-03-14T22:46:42.226Z,83.90
2023-03-14T22:49:10.035Z,83.70
2023-03-14T22:51:37.031Z,83.80
2023-03-14T22:54:04.080Z,83.80
2023-03-14T22:56:31.183Z,83.90
2023-03-14T22:58:59.541Z,83.90
2023-03-14T23:01:27.430Z,84.30
2023-03-14T23:03:54.629Z,84.20
2023-03-14T23:06:21.561Z,84.10
2023-03-14T23:08:48.309Z,84.10
2023-03-14T23:11:15.247Z,84.00
2023-03-14T23:13:42.776Z,84.10
2023-03-14T23:16:12.126Z,84.10
2023-03-14T23:18:41.484Z,84.40
2023-03-14T23:21:08.368Z,85.30
2023-03-14T23:23:35.306Z,84.70
2023-03-14T23:26:07.140Z,85.10
2023-03-14T23:28:34.102Z,85.00
2023-03-14T23:31:01.565Z,85.00
2023-03-14T23:33:29.605Z,84.90
2023-03-14T23:35:56.434Z,84.90
2023-03-14T23:38:25.928Z,85.10
2023-03-14T23:40:53.478Z,85.30
2023-03-14T23:43:21.071Z,85.80
2023-03-14T23:45:53.396Z,85.80
2023-03-14T23:48:21.432Z,85.50
2023-03-14T23:50:48.225Z,85.80
2023-03-14T23:53:15.105Z,86.10
2023-03-14T23:55:41.868Z,87.40
2023-03-14T23:58:08.657Z,86.50
